Bereitgestellt durch: NATIONAL WEATHER SERVICE 


METAR
-- 2016/05/26 21:20 ETNL 262120Z 08006KT 9999 BKN015 15/12 Q1017 WHT
-- 2016/05/26 16:50 EDAH 261650Z 02009KT 360V060 9999 SCT009 14/11 Q1016
TAF
-- 2016/05/26 23:09 TAF TAF ETNL 262200Z 2623/2711 07007KT 8000 NSW BKN015 BKN025 TEMPO 2623/2708 03005KT 4000 -SHRA BKN008 BKN020 BECMG 2706/2709 02007KT 9999 NSW SCT020 BKN030 BY ETGL
-- 2012/01/20 18:26 TAF EDAH 201700Z 2018/2109 28010KT CNL= TAF AMD ETAD 2018/2117 24010KT 9999 FEW003 BKN040 QNH2994INS TEMPO 2018/2022 OVC005 BECMG 2102/2103 23010G20KT 5000 -SN BKN007 OVC020 620109 QNH2999INS BECMG 2105/2106 21010G25KT 9000 -RA OVC007 620705 510004 QNH2994INS BECMG 2108/2109 19010G20KT 9000 -RA BKN010 OVC025 620705 QNH2991INS T06/2114Z T00/2103Z AMD 201822